Atlanta (ATL/KATL)

Information

Location
Atlanta, GA
Local Time
21:45 / 9:45 pm
GMT Time
02:45 / 2:45 am
Gates
Unassigned
No FAA reported delays
METAR KATL 170152Z 10008KT 10SM FEW080 FEW180 16/13 A3025 RMK AO2 SLP242 T01610128
TAF KATL 170141Z 1702/1806 15007KT P6SM SCT080 BKN250 FM170800 14004KT P6SM SCT030 BKN100 FM171400 19006KT P6SM BKN070 FM171700 20008KT P6SM SCT030 BKN060 FM180000 21006KT P6SM BKN060
  • No charts available